Time;durP1;ratioP1;P1;durP2;ratioP2;P2;SDS_P1;SDS_P2;PMS_P1;PMS_P2;Temp;Humidity;BMP_temperature;BMP_pressure;BME280_temperature;BME280_humidity;BME280_pressure;Samples;Min_cycle;Max_cycle;Signal;HPM_P1;HPM_P2
2023/12/11 00:01:07;;;;;;;24.03;3.63;;;10.10;99.90;;;;;;5074256;28;20171;-44
2023/12/11 00:03:34;;;;;;;20.13;3.93;;;10.20;99.90;;;;;;5056984;28;20207;-44
2023/12/11 00:06:00;;;;;;;21.80;3.70;;;10.20;99.90;;;;;;5056155;28;20655;-44
2023/12/11 00:08:25;;;;;;;19.80;3.00;;;11.20;99.90;;;;;;5073664;28;20212;-46
2023/12/11 00:10:52;;;;;;;20.37;3.33;;;10.20;99.90;;;;;;5055941;28;20241;-43
2023/12/11 00:13:21;;;;;;;23.70;3.60;;;10.20;99.90;;;;;;5073679;28;20722;-45
2023/12/11 00:15:48;;;;;;;23.97;4.27;;;10.20;99.90;;;;;;5073703;28;20201;-43
2023/12/11 00:18:13;;;;;;;26.20;4.23;;;10.10;99.90;;;;;;5073551;28;20602;-45
2023/12/11 00:20:39;;;;;;;30.50;4.47;;;10.20;99.90;;;;;;5073496;28;20198;-42
2023/12/11 00:23:06;;;;;;;12.90;3.73;;;10.20;99.90;;;;;;5073041;28;20187;-43
2023/12/11 00:25:34;;;;;;;18.40;2.77;;;10.10;99.90;;;;;;5074537;28;20185;-45
2023/12/11 00:28:00;;;;;;;15.73;3.33;;;10.10;99.90;;;;;;5073810;28;20218;-44
2023/12/11 00:30:26;;;;;;;24.03;3.40;;;10.10;99.90;;;;;;5073767;28;20242;-42
2023/12/11 00:33:06;;;;;;;17.60;3.50;;;10.10;99.90;;;;;;5073416;28;20178;-44
2023/12/11 00:35:36;;;;;;;26.30;3.97;;;10.10;99.90;;;;;;5055560;28;20190;-43
2023/12/11 00:38:06;;;;;;;13.77;2.77;;;10.10;99.90;;;;;;5055854;28;20241;-45
2023/12/11 00:40:31;;;;;;;10.27;1.73;;;10.10;99.90;;;;;;5073951;28;20194;-43
2023/12/11 00:42:57;;;;;;;25.67;4.07;;;10.20;99.90;;;;;;5072862;28;20655;-43
2023/12/11 00:45:27;;;;;;;24.90;4.10;;;10.10;99.90;;;;;;5055611;28;20187;-43
2023/12/11 00:47:53;;;;;;;23.43;4.13;;;10.20;99.90;;;;;;5055536;28;20194;-42
2023/12/11 00:50:19;;;;;;;23.63;2.70;;;10.20;99.90;;;;;;5055376;28;20725;-45
2023/12/11 00:52:44;;;;;;;19.40;3.67;;;10.30;99.90;;;;;;5073491;28;20204;-45
2023/12/11 00:55:10;;;;;;;21.17;3.43;;;10.30;99.90;;;;;;5055423;28;20189;-44
2023/12/11 00:57:36;;;;;;;20.57;3.07;;;10.30;99.90;;;;;;5073125;28;20247;-46
2023/12/11 01:00:07;;;;;;;21.53;4.93;;;10.30;99.90;;;;;;5073380;28;20202;-43
2023/12/11 01:02:41;;;;;;;19.47;3.77;;;10.20;99.90;;;;;;5072562;28;20607;-46
2023/12/11 01:05:07;;;;;;;20.07;3.40;;;10.30;99.90;;;;;;5073331;28;20163;-44
2023/12/11 01:07:33;;;;;;;21.93;3.43;;;10.30;99.90;;;;;;5073335;28;20578;-43
2023/12/11 01:10:00;;;;;;;17.43;3.20;;;10.30;99.90;;;;;;5073565;28;20333;-43
2023/12/11 01:12:33;;;;;;;16.27;3.43;;;10.30;99.90;;;;;;5073278;28;20195;-44
2023/12/11 01:14:58;;;;;;;14.20;2.83;;;10.30;99.90;;;;;;5055362;28;20279;-44
2023/12/11 01:17:27;;;;;;;22.20;3.70;;;10.40;99.90;;;;;;5072866;28;20284;-43
2023/12/11 01:19:53;;;;;;;17.33;3.03;;;10.40;99.90;;;;;;5073026;28;20202;-44
2023/12/11 01:22:19;;;;;;;25.23;4.30;;;10.40;99.90;;;;;;5073001;28;20175;-44
2023/12/11 01:24:44;;;;;;;18.73;3.30;;;10.40;99.90;;;;;;5055162;28;20190;-46
2023/12/11 01:27:13;;;;;;;28.73;3.60;;;10.40;99.90;;;;;;5072893;28;20240;-44
2023/12/11 01:29:39;;;;;;;27.57;3.97;;;10.40;99.90;;;;;;5072819;28;20210;-45
2023/12/11 01:32:05;;;;;;;15.90;3.33;;;10.40;99.90;;;;;;5073113;28;20183;-44
2023/12/11 01:34:31;;;;;;;25.50;4.23;;;10.40;99.90;;;;;;5072765;28;20232;-44
2023/12/11 01:37:01;;;;;;;10.30;1.97;;;10.40;99.90;;;;;;5076299;28;20214;-43
2023/12/11 01:39:27;;;;;;;15.83;4.00;;;10.40;99.90;;;;;;5076557;28;20226;-48
2023/12/11 01:42:03;;;;;;;22.20;3.07;;;10.40;99.90;;;;;;5076880;28;20186;-48
2023/12/11 01:44:30;;;;;;;20.43;3.00;;;10.40;99.90;;;;;;5076907;28;20202;-48
2023/12/11 01:46:56;;;;;;;21.63;3.63;;;10.40;99.90;;;;;;5058451;28;20195;-48
2023/12/11 01:49:22;;;;;;;18.77;3.53;;;10.40;99.90;;;;;;5076425;28;20712;-48
2023/12/11 01:51:48;;;;;;;18.97;3.23;;;10.40;99.90;;;;;;5076432;28;20174;-47
2023/12/11 01:54:27;;;;;;;21.67;4.17;;;10.40;99.90;;;;;;5058881;28;20191;-47
2023/12/11 01:56:53;;;;;;;25.53;3.70;;;10.40;99.90;;;;;;5076544;28;20237;-47
2023/12/11 01:59:19;;;;;;;20.57;4.17;;;10.40;99.90;;;;;;5076127;28;20202;-46
2023/12/11 02:02:02;;;;;;;24.60;4.10;;;10.40;99.90;;;;;;5075879;28;20197;-47
2023/12/11 02:04:29;;;;;;;24.43;3.77;;;10.40;99.90;;;;;;5076267;28;20258;-48
2023/12/11 02:06:58;;;;;;;15.53;2.63;;;10.40;99.90;;;;;;5058466;28;20253;-47
2023/12/11 02:09:26;;;;;;;24.70;5.07;;;10.30;99.90;;;;;;5076329;28;20202;-47
2023/12/11 02:12:01;;;;;;;23.63;3.43;;;10.30;99.90;;;;;;5076088;28;20567;-47
2023/12/11 02:14:26;;;;;;;27.87;4.53;;;10.30;99.90;;;;;;5075377;28;20201;-46
2023/12/11 02:16:52;;;;;;;21.43;3.10;;;10.30;99.90;;;;;;5058330;28;20208;-47
2023/12/11 02:19:21;;;;;;;15.47;3.43;;;10.30;99.90;;;;;;5057914;28;20210;-47
2023/12/11 02:25:11;;;;;;;12.53;2.63;;;10.40;99.90;;;;;;5075899;28;20167;-48
2023/12/11 02:27:42;;;;;;;17.43;2.17;;;10.40;99.90;;;;;;5075764;28;20191;-48
2023/12/11 02:30:08;;;;;;;19.67;2.93;;;10.40;99.90;;;;;;5075649;28;20225;-47
2023/12/11 02:32:35;;;;;;;17.30;2.83;;;10.40;99.90;;;;;;5075920;28;20187;-47
2023/12/11 02:35:04;;;;;;;17.30;2.87;;;10.40;99.90;;;;;;5074938;28;20192;-48
2023/12/11 02:37:30;;;;;;;31.93;3.67;;;10.40;99.90;;;;;;5077074;28;20297;-47
2023/12/11 02:39:57;;;;;;;18.90;3.60;;;10.40;99.90;;;;;;5059396;28;20352;-47
2023/12/11 02:42:22;;;;;;;20.67;3.27;;;10.40;99.90;;;;;;5077071;28;20181;-47
2023/12/11 02:44:48;;;;;;;18.07;3.47;;;10.40;99.90;;;;;;5059276;28;20188;-47
2023/12/11 02:47:14;;;;;;;18.97;3.27;;;10.40;99.90;;;;;;5076892;28;20186;-47
2023/12/11 02:49:39;;;;;;;22.17;3.63;;;10.40;99.90;;;;;;5057376;28;20222;-46
2023/12/11 02:52:05;;;;;;;19.50;3.43;;;10.40;99.90;;;;;;5075252;28;20612;-47
2023/12/11 02:54:40;;;;;;;18.33;3.03;;;10.40;99.90;;;;;;5075165;28;20191;-48
2023/12/11 02:57:05;;;;;;;23.53;3.97;;;10.40;99.90;;;;;;5075472;28;20226;-48
2023/12/11 02:59:31;;;;;;;21.57;4.53;;;10.40;99.90;;;;;;5057223;28;20671;-47
2023/12/11 03:02:01;;;;;;;15.10;3.03;;;10.40;99.90;;;;;;5057267;28;20215;-48
2023/12/11 03:04:28;;;;;;;20.57;3.53;;;10.40;99.90;;;;;;5075226;28;20197;-48
2023/12/11 03:06:53;;;;;;;10.60;2.30;;;10.40;99.90;;;;;;5074996;28;20262;-48
2023/12/11 03:09:23;;;;;;;18.07;3.33;;;10.40;99.90;;;;;;5074768;28;20228;-49
2023/12/11 03:11:48;;;;;;;20.27;2.80;;;10.40;99.90;;;;;;5057003;28;20194;-49
2023/12/11 03:14:14;;;;;;;13.43;3.10;;;10.40;99.90;;;;;;5074799;28;20187;-49
2023/12/11 03:16:40;;;;;;;22.33;3.53;;;10.40;99.90;;;;;;5057214;28;20241;-49
2023/12/11 03:19:09;;;;;;;25.83;3.90;;;10.40;99.90;;;;;;5074624;28;20209;-49
2023/12/11 03:21:35;;;;;;;26.00;3.40;;;10.40;99.90;;;;;;5074878;28;20253;-49
2023/12/11 03:24:03;;;;;;;18.23;3.13;;;10.40;99.90;;;;;;5074889;28;20639;-49
2023/12/11 03:26:32;;;;;;;23.83;3.73;;;10.30;99.90;;;;;;5040109;28;20183;-47
2023/12/11 03:28:57;;;;;;;14.53;2.27;;;10.30;99.90;;;;;;5074675;28;20207;-49
2023/12/11 03:31:29;;;;;;;20.53;2.90;;;10.30;99.90;;;;;;5074761;28;20187;-49
2023/12/11 03:33:55;;;;;;;17.83;2.90;;;10.30;99.90;;;;;;5074822;28;20167;-48
2023/12/11 03:36:25;;;;;;;24.27;3.80;;;10.30;99.90;;;;;;5056654;28;20180;-47
2023/12/11 03:38:50;;;;;;;16.63;2.87;;;10.40;99.90;;;;;;5074320;28;20210;-48
2023/12/11 03:41:16;;;;;;;13.23;2.57;;;10.40;99.90;;;;;;5074560;28;20274;-47
2023/12/11 03:43:43;;;;;;;25.00;3.63;;;10.40;99.90;;;;;;5074302;28;20640;-46
2023/12/11 03:46:09;;;;;;;11.67;2.60;;;10.40;99.90;;;;;;5056673;28;20187;-47
2023/12/11 03:48:34;;;;;;;19.10;3.23;;;10.50;99.90;;;;;;5073952;28;20553;-48
2023/12/11 03:51:06;;;;;;;7.87;2.37;;;10.50;99.90;;;;;;5074122;28;20171;-49
2023/12/11 03:56:54;;;;;;;23.40;4.13;;;10.50;99.90;;;;;;5074037;28;20213;-49
2023/12/11 03:59:21;;;;;;;16.70;2.90;;;10.50;99.90;;;;;;5073331;28;20277;-47
2023/12/11 04:01:47;;;;;;;17.90;2.87;;;10.60;99.90;;;;;;5074480;28;20257;-49
2023/12/11 04:04:13;;;;;;;22.97;3.47;;;10.50;99.90;;;;;;5074186;28;20258;-48
2023/12/11 04:06:38;;;;;;;18.90;3.13;;;10.50;99.90;;;;;;5074061;28;20175;-47
2023/12/11 04:09:05;;;;;;;17.80;3.83;;;10.50;99.90;;;;;;5073828;28;20248;-48
2023/12/11 04:11:32;;;;;;;15.63;3.33;;;10.50;99.90;;;;;;5056271;28;20185;-48
2023/12/11 04:14:27;;;;;;;12.43;2.77;;;10.60;99.90;;;;;;5074098;28;20172;-47
2023/12/11 04:16:52;;;;;;;27.50;3.73;;;10.60;99.90;;;;;;5073573;28;20199;-48
2023/12/11 04:19:18;;;;;;;15.43;2.87;;;10.60;99.90;;;;;;5073827;28;20202;-47
2023/12/11 04:21:45;;;;;;;12.20;2.80;;;10.60;99.90;;;;;;5056538;28;20248;-46
2023/12/11 04:24:20;;;;;;;15.30;2.63;;;10.50;99.90;;;;;;5055774;28;20191;-48
2023/12/11 04:26:51;;;;;;;13.03;2.90;;;10.60;99.90;;;;;;5073809;28;20217;-47
2023/12/11 04:29:17;;;;;;;16.23;3.10;;;10.60;99.90;;;;;;5074073;28;20198;-48
2023/12/11 04:31:46;;;;;;;10.97;2.47;;;10.50;99.90;;;;;;5055631;28;20274;-46
2023/12/11 04:34:18;;;;;;;13.87;2.77;;;10.50;99.90;;;;;;5073399;28;20256;-47
2023/12/11 04:36:47;;;;;;;17.83;3.07;;;10.50;99.90;;;;;;5072457;28;20243;-47
2023/12/11 04:39:13;;;;;;;15.13;2.50;;;10.40;99.90;;;;;;5073646;28;20190;-47
2023/12/11 04:41:39;;;;;;;11.20;2.50;;;10.30;99.90;;;;;;5073344;28;20244;-46
2023/12/11 04:44:07;;;;;;;13.57;2.27;;;10.30;99.90;;;;;;5073628;28;20190;-46
2023/12/11 04:46:33;;;;;;;14.20;2.10;;;10.20;99.90;;;;;;5073601;28;20190;-48
2023/12/11 04:48:59;;;;;;;22.43;2.90;;;10.20;99.90;;;;;;5073091;28;20210;-47
2023/12/11 04:51:27;;;;;;;15.20;2.87;;;10.20;99.90;;;;;;5055504;28;20180;-46
2023/12/11 04:53:53;;;;;;;12.87;3.00;;;10.10;99.90;;;;;;5073199;28;20186;-47
2023/12/11 04:56:25;;;;;;;18.10;3.00;;;10.10;99.90;;;;;;5055694;28;20578;-47
2023/12/11 04:58:51;;;;;;;15.40;2.67;;;10.10;99.90;;;;;;5056497;28;20218;-45
2023/12/11 05:01:17;;;;;;;20.60;3.50;;;10.10;99.90;;;;;;5055295;28;20186;-45
2023/12/11 05:03:54;;;;;;;22.50;3.40;;;10.00;99.90;;;;;;5073398;28;20214;-49
2023/12/11 05:06:22;;;;;;;20.70;2.97;;;10.00;99.90;;;;;;5073169;28;20174;-46
2023/12/11 05:08:49;;;;;;;14.07;2.97;;;10.00;99.90;;;;;;5072958;28;20206;-46
2023/12/11 05:11:15;;;;;;;17.03;3.50;;;9.90;99.90;;;;;;5077134;28;20269;-47
2023/12/11 05:13:45;;;;;;;18.67;3.37;;;10.00;99.90;;;;;;5077128;28;20273;-47
2023/12/11 05:16:11;;;;;;;14.63;3.10;;;9.90;99.90;;;;;;5077329;28;20175;-47
2023/12/11 05:18:38;;;;;;;6.93;1.53;;;9.90;99.90;;;;;;5076870;28;20203;-46
2023/12/11 05:21:08;;;;;;;5.70;1.20;;;9.80;99.90;;;;;;5065917;28;20202;-46
2023/12/11 05:23:38;;;;;;;7.07;1.47;;;9.80;99.90;;;;;;5076837;28;20194;-46
2023/12/11 05:26:05;;;;;;;9.53;1.70;;;9.70;99.90;;;;;;5058986;28;20187;-46
2023/12/11 05:28:30;;;;;;;8.10;1.50;;;9.60;99.90;;;;;;5077629;28;20202;-46
2023/12/11 05:30:56;;;;;;;8.07;1.97;;;9.60;99.90;;;;;;5076831;28;20658;-46
2023/12/11 05:33:22;;;;;;;8.20;2.00;;;9.50;99.90;;;;;;5076861;28;20217;-45
2023/12/11 05:35:47;;;;;;;6.10;1.73;;;9.50;99.90;;;;;;5058918;28;20191;-47
2023/12/11 05:38:14;;;;;;;4.30;1.13;;;9.40;99.90;;;;;;5076588;28;20278;-46
2023/12/11 05:40:40;;;;;;;9.53;2.10;;;9.40;99.90;;;;;;5058800;28;20199;-45
2023/12/11 05:43:13;;;;;;;13.23;2.80;;;9.40;99.90;;;;;;5076549;28;20178;-47
2023/12/11 05:45:38;;;;;;;14.70;2.97;;;9.50;99.90;;;;;;5077040;28;20163;-47
2023/12/11 05:48:19;;;;;;;12.93;2.60;;;9.50;99.90;;;;;;5058723;28;20202;-47
2023/12/11 05:50:51;;;;;;;15.10;2.93;;;9.50;99.90;;;;;;5076254;28;20206;-49
2023/12/11 05:53:17;;;;;;;15.57;3.27;;;9.50;99.90;;;;;;5076433;28;20195;-49
2023/12/11 05:55:45;;;;;;;18.67;3.50;;;9.50;99.90;;;;;;5076502;28;20203;-47
2023/12/11 05:58:16;;;;;;;14.43;2.53;;;9.50;99.90;;;;;;5076237;28;20217;-48
2023/12/11 06:00:44;;;;;;;18.57;2.97;;;9.50;99.90;;;;;;5076445;28;20592;-47
2023/12/11 06:03:10;;;;;;;22.37;3.73;;;9.50;99.90;;;;;;5076204;28;20191;-47
2023/12/11 06:05:37;;;;;;;10.00;2.20;;;9.40;99.90;;;;;;5076317;28;20179;-47
2023/12/11 06:08:04;;;;;;;16.50;3.60;;;9.40;99.90;;;;;;5058167;28;20248;-48
2023/12/11 06:10:36;;;;;;;19.03;3.97;;;9.50;99.90;;;;;;5058644;28;20212;-48
2023/12/11 06:13:04;;;;;;;9.27;2.37;;;9.40;99.90;;;;;;5075979;28;20217;-48
2023/12/11 06:15:30;;;;;;;6.73;1.77;;;9.50;99.90;;;;;;5076578;28;20191;-47
2023/12/11 06:17:55;;;;;;;10.13;2.43;;;9.50;99.90;;;;;;5058930;28;20210;-49
2023/12/11 06:20:21;;;;;;;17.53;2.50;;;9.50;99.90;;;;;;5075699;28;20713;-48
2023/12/11 06:22:47;;;;;;;7.97;2.03;;;9.50;99.90;;;;;;5075449;28;20511;-47
2023/12/11 06:25:14;;;;;;;15.50;2.17;;;9.50;99.90;;;;;;5076348;28;20647;-48
2023/12/11 06:27:41;;;;;;;13.20;2.77;;;9.60;99.90;;;;;;5075985;28;20170;-47
2023/12/11 06:30:07;;;;;;;14.93;2.90;;;9.60;99.90;;;;;;5058026;28;20196;-49
2023/12/11 06:32:34;;;;;;;8.47;1.70;;;9.60;99.90;;;;;;5057771;28;20190;-48
2023/12/11 06:35:00;;;;;;;20.63;3.70;;;9.70;99.90;;;;;;5075200;28;20197;-48
2023/12/11 06:37:26;;;;;;;12.63;2.50;;;9.70;99.90;;;;;;5057837;28;20203;-47
2023/12/11 06:39:53;;;;;;;8.97;2.10;;;9.60;99.90;;;;;;5075916;28;20199;-51
2023/12/11 06:42:19;;;;;;;17.07;2.50;;;9.70;99.90;;;;;;5075943;28;20178;-47
2023/12/11 06:44:45;;;;;;;16.83;2.20;;;9.70;99.90;;;;;;5057852;28;20187;-48
2023/12/11 06:47:11;;;;;;;10.17;2.00;;;9.60;99.90;;;;;;5075343;28;20197;-47
2023/12/11 06:49:42;;;;;;;10.40;2.90;;;9.60;99.90;;;;;;5057406;28;20226;-48
2023/12/11 06:52:12;;;;;;;14.83;2.87;;;9.60;99.90;;;;;;5075648;28;20183;-48
2023/12/11 06:54:41;;;;;;;7.67;1.40;;;9.70;99.90;;;;;;5057639;28;20557;-48
2023/12/11 06:57:07;;;;;;;20.27;2.60;;;9.60;99.90;;;;;;5057414;28;20360;-48
2023/12/11 06:59:38;;;;;;;20.63;2.97;;;9.70;99.90;;;;;;5075375;28;20304;-48
2023/12/11 07:02:05;;;;;;;9.50;2.10;;;9.70;99.90;;;;;;5075388;28;20174;-47
2023/12/11 07:04:31;;;;;;;12.63;2.03;;;9.70;99.90;;;;;;5057341;28;20183;-48
2023/12/11 07:06:57;;;;;;;11.83;2.43;;;9.70;99.90;;;;;;5075016;28;20589;-46
2023/12/11 07:09:26;;;;;;;20.17;2.40;;;9.80;99.90;;;;;;5075173;28;20202;-47
2023/12/11 07:11:55;;;;;;;10.53;2.37;;;9.80;99.90;;;;;;5074965;28;20194;-47
2023/12/11 07:14:22;;;;;;;10.27;2.10;;;9.90;99.90;;;;;;5075353;28;20660;-47
2023/12/11 07:17:21;;;;;;;13.40;2.17;;;9.80;99.90;;;;;;5074932;28;20217;-48
2023/12/11 07:19:47;;;;;;;11.67;2.23;;;9.90;99.90;;;;;;5056859;28;20224;-47
2023/12/11 07:22:16;;;;;;;11.63;2.37;;;9.90;99.90;;;;;;5074971;28;20179;-48
2023/12/11 07:24:41;;;;;;;8.70;1.83;;;9.90;99.90;;;;;;5074624;28;20669;-48
2023/12/11 07:27:08;;;;;;;18.57;2.40;;;10.00;99.90;;;;;;5074599;28;20183;-47
2023/12/11 07:29:37;;;;;;;9.47;1.90;;;10.00;99.90;;;;;;5074750;28;20207;-46
2023/12/11 07:32:03;;;;;;;14.37;3.07;;;10.00;99.90;;;;;;5074821;28;20184;-48
2023/12/11 07:34:29;;;;;;;11.00;2.17;;;10.00;99.90;;;;;;5056514;28;20688;-47
2023/12/11 07:36:58;;;;;;;9.07;2.10;;;10.00;99.90;;;;;;5074395;28;20203;-47
2023/12/11 07:39:24;;;;;;;13.70;2.40;;;10.00;99.90;;;;;;5074482;28;20203;-48
2023/12/11 07:41:50;;;;;;;7.90;2.83;;;10.00;99.90;;;;;;5074679;28;20193;-47
2023/12/11 07:44:21;;;;;;;12.13;2.30;;;10.00;99.90;;;;;;5056583;28;20266;-48
2023/12/11 07:46:48;;;;;;;15.50;2.60;;;10.00;99.90;;;;;;5074275;28;20194;-47
2023/12/11 07:49:14;;;;;;;12.37;2.23;;;10.00;99.90;;;;;;5056370;28;20214;-48
2023/12/11 07:51:39;;;;;;;17.80;2.57;;;10.00;99.90;;;;;;5056735;28;20685;-48
2023/12/11 07:54:06;;;;;;;12.63;2.53;;;10.10;99.90;;;;;;5074416;28;20581;-48
2023/12/11 07:56:32;;;;;;;9.83;1.80;;;10.10;99.90;;;;;;5073800;28;20195;-47
2023/12/11 07:58:59;;;;;;;10.60;2.13;;;10.10;99.90;;;;;;5056089;28;20687;-47
2023/12/11 08:01:30;;;;;;;13.10;2.53;;;10.10;99.90;;;;;;5074186;28;20626;-48
2023/12/11 08:03:57;;;;;;;9.57;2.60;;;10.10;99.90;;;;;;5056905;28;20202;-47
2023/12/11 08:06:23;;;;;;;14.50;2.27;;;10.10;99.90;;;;;;5056527;28;20252;-48
2023/12/11 08:08:52;;;;;;;7.97;2.73;;;10.20;99.90;;;;;;5073764;28;20572;-47
2023/12/11 08:11:27;;;;;;;14.33;2.53;;;10.10;99.90;;;;;;5073680;28;20278;-48
2023/12/11 08:13:52;;;;;;;7.73;2.23;;;10.10;99.90;;;;;;5074036;28;20182;-49
2023/12/11 08:16:18;;;;;;;12.00;2.17;;;10.20;99.90;;;;;;5073979;28;20190;-47
2023/12/11 08:18:48;;;;;;;10.83;2.20;;;10.20;99.90;;;;;;5055883;28;20732;-49
2023/12/11 08:21:17;;;;;;;8.20;1.57;;;10.20;99.90;;;;;;5073665;28;20175;-49
2023/12/11 08:23:44;;;;;;;18.10;2.17;;;10.20;99.90;;;;;;5073831;28;20234;-47
2023/12/11 08:26:10;;;;;;;16.53;3.13;;;10.20;99.90;;;;;;5072736;28;20269;-48
2023/12/11 08:28:36;;;;;;;12.60;2.97;;;10.30;99.90;;;;;;5056666;28;20198;-48
2023/12/11 08:31:05;;;;;;;16.73;3.80;;;10.30;99.90;;;;;;5073640;28;20685;-48
2023/12/11 08:33:56;;;;;;;14.27;2.90;;;10.30;99.90;;;;;;5072884;28;20658;-48
2023/12/11 08:36:26;;;;;;;7.10;1.93;;;10.30;99.90;;;;;;5073547;28;20255;-49
2023/12/11 08:38:52;;;;;;;10.77;2.97;;;10.30;99.90;;;;;;5055376;28;20226;-48
2023/12/11 08:41:18;;;;;;;12.13;2.73;;;10.30;99.90;;;;;;5055734;28;20186;-48
2023/12/11 08:43:44;;;;;;;9.30;1.53;;;10.30;99.90;;;;;;5055294;28;20643;-48
2023/12/11 08:46:09;;;;;;;11.67;2.23;;;10.30;99.90;;;;;;5073302;28;20650;-47
2023/12/11 08:48:38;;;;;;;14.17;3.20;;;10.30;99.90;;;;;;5073294;28;20544;-48
2023/12/11 08:51:06;;;;;;;13.87;2.33;;;10.30;99.90;;;;;;5073274;28;20233;-48
2023/12/11 08:53:31;;;;;;;8.27;2.03;;;10.30;99.90;;;;;;5073922;28;20225;-49
2023/12/11 08:55:57;;;;;;;13.73;3.00;;;10.30;99.90;;;;;;5055446;28;20211;-50
2023/12/11 08:58:25;;;;;;;12.40;2.40;;;10.40;99.90;;;;;;5055407;28;20259;-47
2023/12/11 09:00:51;;;;;;;10.67;1.73;;;10.40;99.90;;;;;;5072665;28;20224;-48
2023/12/11 09:03:16;;;;;;;9.17;1.90;;;11.20;99.90;;;;;;5073197;28;20263;-48
2023/12/11 09:05:42;;;;;;;11.57;2.17;;;10.30;99.90;;;;;;5073249;28;20541;-47
2023/12/11 09:08:11;;;;;;;7.00;2.07;;;10.40;99.90;;;;;;5073476;28;20673;-49
2023/12/11 09:10:36;;;;;;;12.80;2.13;;;10.40;99.90;;;;;;5073064;28;20256;-49
2023/12/11 09:13:02;;;;;;;9.60;1.50;;;10.40;99.90;;;;;;5073366;28;20183;-48
2023/12/11 09:15:28;;;;;;;11.53;2.13;;;10.40;99.90;;;;;;5073143;28;20266;-49
2023/12/11 09:17:54;;;;;;;14.97;2.53;;;10.40;99.90;;;;;;5055383;28;20202;-49
2023/12/11 09:20:21;;;;;;;14.73;2.40;;;10.40;99.90;;;;;;5073182;28;20282;-49
2023/12/11 09:22:47;;;;;;;13.37;2.57;;;10.40;99.90;;;;;;5055378;28;20195;-48
2023/12/11 09:25:13;;;;;;;11.80;2.23;;;10.40;99.90;;;;;;5073252;28;20187;-48
2023/12/11 09:27:42;;;;;;;7.63;2.50;;;10.40;99.90;;;;;;5073037;28;20678;-47
2023/12/11 09:30:10;;;;;;;14.13;2.60;;;10.30;99.90;;;;;;5073108;28;20207;-48
2023/12/11 09:32:51;;;;;;;15.73;1.77;;;10.30;99.90;;;;;;5055169;28;20184;-47
2023/12/11 09:35:16;;;;;;;9.53;2.43;;;10.40;99.90;;;;;;5055410;28;20191;-48
2023/12/11 09:37:42;;;;;;;9.57;1.67;;;10.40;99.90;;;;;;5073379;28;20207;-48
2023/12/11 09:40:10;;;;;;;11.60;2.67;;;10.40;99.90;;;;;;5055573;28;20191;-47
2023/12/11 09:42:43;;;;;;;10.60;1.90;;;10.40;99.90;;;;;;5055040;28;20183;-48
2023/12/11 09:45:15;;;;;;;11.83;2.17;;;10.40;99.90;;;;;;5072040;28;20183;-48
2023/12/11 09:47:50;;;;;;;13.67;2.40;;;10.40;99.90;;;;;;5056009;28;20655;-47
2023/12/11 09:50:20;;;;;;;21.40;4.37;;;10.40;99.90;;;;;;5072637;28;20221;-47
2023/12/11 09:52:51;;;;;;;9.63;2.40;;;10.30;99.90;;;;;;5054764;28;20286;-47
2023/12/11 09:55:18;;;;;;;17.63;3.17;;;10.20;99.90;;;;;;5072776;28;20636;-48
2023/12/11 09:57:47;;;;;;;8.97;1.73;;;10.20;99.90;;;;;;5075481;28;20209;-48
2023/12/11 10:03:34;;;;;;;9.00;2.10;;;10.10;99.90;;;;;;5076320;28;20240;-48
2023/12/11 10:06:00;;;;;;;17.43;2.97;;;10.00;99.90;;;;;;5076431;28;20585;-47
2023/12/11 10:08:26;;;;;;;18.27;2.47;;;10.00;99.90;;;;;;5076367;28;20187;-49
2023/12/11 10:11:12;;;;;;;18.23;3.83;;;9.90;99.90;;;;;;5058443;28;20179;-47
2023/12/11 10:13:39;;;;;;;17.70;3.27;;;9.80;99.90;;;;;;5075929;28;20320;-48
2023/12/11 10:16:07;;;;;;;14.40;3.07;;;9.80;99.90;;;;;;5075951;28;20187;-47
2023/12/11 10:18:51;;;;;;;15.50;3.67;;;9.70;99.90;;;;;;5057770;28;20586;-46
2023/12/11 10:21:17;;;;;;;11.10;2.60;;;9.70;99.90;;;;;;5075939;28;20171;-47
2023/12/11 10:23:43;;;;;;;12.47;2.33;;;9.60;99.90;;;;;;5075798;28;20678;-49
2023/12/11 10:26:09;;;;;;;17.40;3.17;;;9.50;99.90;;;;;;5076616;28;20211;-46
2023/12/11 10:28:35;;;;;;;17.13;3.87;;;9.50;99.90;;;;;;5075925;28;20190;-48
2023/12/11 10:31:04;;;;;;;13.17;2.87;;;9.50;99.90;;;;;;5057951;28;20274;-47
2023/12/11 10:33:31;;;;;;;19.87;3.33;;;9.50;99.90;;;;;;5073515;28;20606;-46
2023/12/11 10:36:15;;;;;;;18.30;3.40;;;9.50;99.90;;;;;;5058089;28;20198;-47
2023/12/11 10:38:42;;;;;;;25.73;3.30;;;9.60;99.90;;;;;;5074594;28;20243;-47
2023/12/11 10:41:10;;;;;;;13.73;2.50;;;9.50;99.90;;;;;;5074874;28;20192;-48
2023/12/11 10:43:42;;;;;;;7.17;1.70;;;9.60;99.90;;;;;;5075771;28;20191;-47
2023/12/11 10:46:09;;;;;;;10.73;2.00;;;9.60;99.90;;;;;;5057973;28;20197;-47
2023/12/11 10:48:36;;;;;;;13.17;2.83;;;9.70;99.90;;;;;;5057592;28;20274;-47
2023/12/11 10:51:03;;;;;;;13.73;2.70;;;9.80;99.90;;;;;;5057564;28;20237;-46
2023/12/11 10:53:29;;;;;;;8.63;2.53;;;9.80;99.90;;;;;;5074980;28;20187;-47
2023/12/11 10:56:03;;;;;;;21.50;3.10;;;9.80;99.90;;;;;;5075211;28;20172;-48
2023/12/11 10:58:29;;;;;;;15.27;3.17;;;9.80;99.90;;;;;;5074853;28;20688;-48
2023/12/11 11:00:59;;;;;;;14.80;2.63;;;9.80;99.90;;;;;;5057628;28;20183;-48
2023/12/11 11:03:27;;;;;;;19.53;3.70;;;9.80;99.90;;;;;;5057200;28;20197;-48
2023/12/11 11:05:54;;;;;;;10.07;2.10;;;9.80;99.90;;;;;;5056969;28;20192;-47
2023/12/11 11:08:55;;;;;;;12.47;2.70;;;9.80;99.90;;;;;;5057369;28;20240;-46
2023/12/11 11:11:31;;;;;;;12.47;2.17;;;9.80;99.90;;;;;;5057011;28;20558;-46
2023/12/11 11:14:17;;;;;;;15.20;2.83;;;9.80;99.90;;;;;;5057012;28;20220;-47
2023/12/11 11:16:58;;;;;;;8.53;2.20;;;9.80;99.90;;;;;;5075099;28;20523;-47
2023/12/11 11:19:25;;;;;;;16.57;2.97;;;9.80;99.90;;;;;;5058065;28;20285;-47
2023/12/11 11:22:03;;;;;;;19.67;3.20;;;9.80;99.90;;;;;;5057484;28;20272;-46
2023/12/11 11:24:40;;;;;;;17.17;3.43;;;9.70;99.90;;;;;;5074930;28;20184;-47
2023/12/11 11:27:44;;;;;;;18.53;3.10;;;9.70;99.90;;;;;;5074691;28;20609;-46
2023/12/11 11:30:10;;;;;;;18.90;3.53;;;9.70;99.90;;;;;;5074687;28;20202;-48
2023/12/11 11:32:56;;;;;;;20.17;3.87;;;9.60;99.90;;;;;;5074872;28;20187;-46
2023/12/11 11:35:45;;;;;;;20.13;3.47;;;9.60;99.90;;;;;;5074673;28;20182;-49
2023/12/11 11:38:11;;;;;;;15.57;3.03;;;9.60;99.90;;;;;;5058994;28;20217;-46
2023/12/11 11:40:37;;;;;;;19.03;3.37;;;9.60;99.90;;;;;;5074644;28;20196;-47
2023/12/11 11:43:45;;;;;;;22.67;3.53;;;9.60;99.90;;;;;;5056585;28;20182;-48
2023/12/11 11:46:11;;;;;;;12.50;1.97;;;9.60;99.90;;;;;;5073431;28;20223;-47
2023/12/11 11:48:41;;;;;;;15.47;2.73;;;9.50;99.90;;;;;;5056604;28;20209;-47
2023/12/11 11:51:07;;;;;;;13.83;2.70;;;9.50;99.90;;;;;;5056356;28;20202;-49
2023/12/11 11:53:33;;;;;;;11.50;2.77;;;9.50;99.90;;;;;;5074353;28;20179;-48
2023/12/11 11:56:02;;;;;;;15.90;2.37;;;9.50;99.90;;;;;;5074087;28;20186;-47
2023/12/11 11:58:33;;;;;;;9.17;1.63;;;9.50;99.90;;;;;;5074124;28;20324;-48
2023/12/11 12:01:07;;;;;;;13.17;2.47;;;9.40;99.90;;;;;;5074131;28;20651;-48
2023/12/11 12:03:40;;;;;;;11.83;2.20;;;9.40;99.90;;;;;;5073981;28;20552;-46
2023/12/11 12:06:08;;;;;;;14.80;2.90;;;9.40;99.90;;;;;;5074160;28;20176;-49
2023/12/11 12:08:36;;;;;;;8.10;2.10;;;9.30;99.90;;;;;;5073789;28;20176;-47
2023/12/11 12:11:11;;;;;;;11.73;2.60;;;9.30;99.90;;;;;;5074131;28;20178;-47
2023/12/11 12:13:39;;;;;;;6.23;1.67;;;9.30;99.90;;;;;;5074128;28;20198;-46
2023/12/11 12:19:33;;;;;;;13.03;2.33;;;9.30;99.90;;;;;;5075459;28;20258;-47
2023/12/11 12:22:04;;;;;;;7.23;1.70;;;9.30;99.90;;;;;;5058120;28;20214;-46
2023/12/11 12:24:37;;;;;;;8.73;1.70;;;9.30;99.90;;;;;;5075865;28;20666;-48
2023/12/11 12:27:09;;;;;;;6.97;1.67;;;9.30;99.90;;;;;;5075005;28;20196;-47
2023/12/11 12:29:39;;;;;;;5.77;1.83;;;9.30;99.90;;;;;;5073852;28;20217;-48
2023/12/11 12:32:09;;;;;;;5.73;1.80;;;9.30;99.90;;;;;;5073409;28;20282;-48
2023/12/11 12:34:43;;;;;;;9.30;1.60;;;9.40;99.90;;;;;;5073738;28;20179;-48
2023/12/11 12:37:10;;;;;;;8.67;1.73;;;9.40;99.90;;;;;;5073672;28;20201;-48
2023/12/11 12:39:36;;;;;;;4.47;1.30;;;9.40;99.90;;;;;;5073182;28;20210;-48
2023/12/11 12:42:03;;;;;;;3.20;1.37;;;9.40;99.90;;;;;;5073621;28;20291;-47
2023/12/11 12:44:30;;;;;;;3.90;1.27;;;9.40;99.90;;;;;;5073406;28;20266;-47
2023/12/11 12:47:10;;;;;;;7.10;1.37;;;9.40;99.90;;;;;;5073455;28;20187;-47
2023/12/11 12:49:38;;;;;;;5.87;1.07;;;9.40;99.90;;;;;;5073493;28;20236;-47
2023/12/11 12:52:05;;;;;;;4.50;1.57;;;9.40;99.90;;;;;;5073756;28;20225;-47
2023/12/11 12:54:49;;;;;;;8.47;1.63;;;9.40;99.90;;;;;;5055850;28;20186;-47
2023/12/11 12:57:16;;;;;;;3.43;1.40;;;9.40;99.90;;;;;;5072548;28;20565;-48
2023/12/11 12:59:42;;;;;;;2.80;1.30;;;9.40;99.90;;;;;;5055589;28;20207;-47
2023/12/11 13:02:15;;;;;;;3.70;1.27;;;9.50;99.90;;;;;;5055479;28;20175;-48
2023/12/11 13:04:51;;;;;;;5.23;1.37;;;9.50;99.90;;;;;;5055604;28;20248;-47